Time;durP1;ratioP1;P1;durP2;ratioP2;P2;SDS_P1;SDS_P2;PMS_P1;PMS_P2;Temp;Humidity;BMP_temperature;BMP_pressure;BME280_temperature;BME280_humidity;BME280_pressure;Samples;Min_cycle;Max_cycle;Signal;HPM_P1;HPM_P2
2022/11/24 00:01:10;;;;;;;2.67;1.73;;;;;;;22.42;46.65;93850.25;5014475;28;20034;-64
2022/11/24 00:03:36;;;;;;;2.67;1.92;;;;;;;22.33;46.38;93834.38;5016079;28;20049;-64
2022/11/24 00:06:06;;;;;;;2.78;1.83;;;;;;;22.31;46.09;93842.31;4997885;28;20042;-63
2022/11/24 00:08:32;;;;;;;2.60;1.60;;;;;;;22.39;46.58;93848.59;5017513;28;20061;-63
2022/11/24 00:11:05;;;;;;;2.67;1.70;;;;;;;22.38;46.70;93847.13;5016674;28;20045;-63
2022/11/24 00:13:31;;;;;;;3.20;2.10;;;;;;;21.26;46.39;93682.16;4983582;28;20029;-64
2022/11/24 00:16:07;;;;;;;2.33;1.60;;;;;;;22.35;46.64;93859.06;4998731;28;20210;-64
2022/11/24 00:18:32;;;;;;;2.75;1.80;;;;;;;22.35;46.71;93864.50;5015447;28;20068;-64
2022/11/24 00:20:58;;;;;;;2.72;1.90;;;;;;;21.72;46.64;93760.16;5000029;28;20065;-64
2022/11/24 00:23:23;;;;;;;3.38;1.77;;;;;;;22.29;46.94;93839.41;5015224;28;20053;-63
2022/11/24 00:25:49;;;;;;;2.97;1.67;;;;;;;21.59;46.86;93752.06;5016088;28;20049;-62
2022/11/24 00:28:14;;;;;;;2.95;1.92;;;;;;;22.29;46.70;93855.72;4982979;28;20042;-64
2022/11/24 00:30:39;;;;;;;3.22;1.83;;;;;;;22.24;46.79;93844.97;5000661;28;20443;-63
2022/11/24 00:33:05;;;;;;;2.70;1.50;;;;;;;21.66;47.00;93778.59;4998565;28;20046;-62
2022/11/24 00:35:30;;;;;;;3.92;2.35;;;;;;;22.27;46.60;93860.97;4997911;28;20459;-64
2022/11/24 00:37:56;;;;;;;3.47;2.00;;;;;;;22.10;46.61;93844.25;5015207;28;20051;-63
2022/11/24 00:40:21;;;;;;;2.53;1.75;;;;;;;22.17;46.56;93868.09;5016945;28;20037;-64
2022/11/24 00:42:47;;;;;;;2.97;1.90;;;;;;;22.24;47.01;93864.75;5016050;28;20021;-63
2022/11/24 00:45:13;;;;;;;2.88;2.00;;;;;;;22.22;46.85;93867.25;5011320;28;20056;-63
2022/11/24 00:47:38;;;;;;;4.00;2.00;;;;;;;22.25;46.82;93871.63;4996769;28;20057;-63
2022/11/24 00:50:04;;;;;;;2.92;1.90;;;;;;;22.17;46.78;93868.09;4998539;28;20081;-62
2022/11/24 00:52:30;;;;;;;2.92;2.00;;;;;;;22.15;46.63;93876.06;4978707;28;20096;-63
2022/11/24 00:54:55;;;;;;;3.13;1.83;;;;;;;22.24;46.99;93886.50;5006076;28;20517;-62
2022/11/24 00:57:20;;;;;;;3.25;1.92;;;;;;;22.19;46.82;93873.72;5014315;28;20533;-66
2022/11/24 00:59:46;;;;;;;3.40;2.00;;;;;;;22.13;46.68;93881.28;4998341;28;20115;-66
2022/11/24 01:02:11;;;;;;;2.90;1.90;;;;;;;22.17;47.06;93887.13;5013864;28;20126;-63
2022/11/24 01:04:37;;;;;;;3.53;1.98;;;;;;;21.63;47.03;93795.94;5014202;28;20730;-64
2022/11/24 01:07:02;;;;;;;3.63;2.10;;;;;;;22.18;46.89;93880.44;5014579;28;20036;-63
2022/11/24 01:09:28;;;;;;;4.15;2.70;;;;;;;21.92;47.22;93845.16;5015759;28;20033;-63
2022/11/24 01:12:02;;;;;;;2.42;1.50;;;;;;;22.13;46.91;93875.84;5015996;28;20111;-63
2022/11/24 01:14:28;;;;;;;2.47;1.67;;;;;;;22.06;46.81;93864.88;5007671;28;20137;-62
2022/11/24 01:16:54;;;;;;;2.33;1.70;;;;;;;22.10;46.91;93871.44;4994705;28;20819;-63
2022/11/24 01:19:19;;;;;;;2.78;1.90;;;;;;;22.12;47.11;93863.50;5007675;28;20508;-63
2022/11/24 01:21:45;;;;;;;3.03;1.90;;;;;;;21.97;46.93;93849.75;5016091;28;20572;-65
2022/11/24 01:24:10;;;;;;;4.32;2.05;;;;;;;22.05;47.07;93864.16;4996554;28;20045;-62
2022/11/24 01:26:36;;;;;;;3.25;1.90;;;;;;;21.92;47.05;93850.59;4996805;28;20037;-64
2022/11/24 01:29:01;;;;;;;2.80;1.73;;;;;;;22.10;47.05;93882.31;4992495;28;20157;-63
2022/11/24 01:31:27;;;;;;;2.97;1.90;;;;;;;22.12;46.96;93896.16;5008743;28;20037;-64
2022/11/24 01:33:52;;;;;;;3.33;2.10;;;;;;;22.12;47.00;93884.50;4997474;28;20512;-63
2022/11/24 01:36:18;;;;;;;2.80;1.80;;;;;;;21.97;47.04;93868.03;5015226;28;20493;-64
2022/11/24 01:38:43;;;;;;;3.72;1.90;;;;;;;22.00;47.15;93873.19;4976195;28;20529;-63
2022/11/24 01:41:17;;;;;;;2.92;1.80;;;;;;;22.04;47.02;93881.00;4968543;28;20489;-63
2022/11/24 01:43:42;;;;;;;3.35;2.05;;;;;;;22.05;47.04;93879.75;4997304;28;20480;-63
2022/11/24 01:46:30;;;;;;;3.08;1.85;;;;;;;22.02;47.09;93884.25;5012784;28;20306;-63
2022/11/24 01:48:55;;;;;;;3.53;1.95;;;;;;;22.04;46.97;93892.59;5012643;28;20505;-63
2022/11/24 01:51:25;;;;;;;3.95;2.25;;;;;;;22.05;47.06;93891.34;5014126;28;20033;-67
2022/11/24 01:53:55;;;;;;;3.05;1.92;;;;;;;22.04;47.05;93873.56;5011384;28;20179;-63
2022/11/24 01:56:20;;;;;;;2.70;2.00;;;;;;;21.94;47.24;93861.69;4996888;28;20290;-65
2022/11/24 01:58:46;;;;;;;2.88;1.85;;;;;;;22.04;46.96;93870.84;5012159;28;21114;-65
2022/11/24 02:01:11;;;;;;;2.72;1.88;;;;;;;21.73;47.03;93826.84;4993101;28;20443;-62
2022/11/24 02:03:38;;;;;;;3.60;1.90;;;;;;;22.06;46.99;93881.94;4975910;28;20033;-62
2022/11/24 02:06:16;;;;;;;2.85;1.95;;;;;;;21.94;47.07;93861.69;4991692;28;20152;-62
2022/11/24 02:09:00;;;;;;;2.63;1.77;;;;;;;21.91;46.95;93864.00;5012238;28;20474;-64
2022/11/24 02:11:27;;;;;;;2.58;1.75;;;;;;;22.02;46.99;93889.69;4997229;28;20045;-64
2022/11/24 02:13:53;;;;;;;2.75;1.90;;;;;;;21.95;47.20;93860.41;5012089;28;20417;-64
2022/11/24 02:16:18;;;;;;;2.50;1.67;;;;;;;22.04;47.12;93884.44;4994549;28;20517;-63
2022/11/24 02:18:44;;;;;;;3.70;1.90;;;;;;;22.03;47.17;93888.44;5013563;28;20041;-65
2022/11/24 02:21:10;;;;;;;2.58;1.77;;;;;;;22.04;46.89;93900.75;5011883;28;20084;-63
2022/11/24 02:23:57;;;;;;;3.63;1.90;;;;;;;22.01;47.06;93890.94;4995680;28;20041;-64
2022/11/24 02:26:34;;;;;;;3.35;1.90;;;;;;;22.01;47.11;93890.94;5013406;28;20548;-65
2022/11/24 02:29:00;;;;;;;2.88;2.00;;;;;;;22.01;46.91;93895.63;5014135;28;20849;-64
2022/11/24 02:31:25;;;;;;;2.90;2.00;;;;;;;21.93;47.13;93881.97;5005475;28;20037;-65
2022/11/24 02:33:51;;;;;;;2.85;2.00;;;;;;;21.97;47.07;93893.25;5012628;28;20018;-64
2022/11/24 02:36:16;;;;;;;2.28;1.77;;;;;;;21.99;47.10;93893.44;5012391;28;20529;-61
2022/11/24 02:38:42;;;;;;;2.95;1.77;;;;;;;21.34;47.09;93802.44;4995323;28;20073;-63
2022/11/24 02:41:10;;;;;;;2.40;1.67;;;;;;;22.00;47.13;93894.16;5011559;28;20038;-63
2022/11/24 02:43:41;;;;;;;2.92;1.95;;;;;;;21.75;47.19;93873.22;5013447;28;20056;-64
2022/11/24 02:46:08;;;;;;;2.83;2.00;;;;;;;21.45;46.94;93824.69;4976775;28;20032;-62
2022/11/24 02:48:33;;;;;;;2.63;1.90;;;;;;;21.98;47.19;93891.25;5007888;28;20159;-63
2022/11/24 02:50:59;;;;;;;2.60;1.80;;;;;;;21.97;46.93;93898.69;5012345;28;20045;-65
2022/11/24 02:53:24;;;;;;;2.78;2.20;;;;;;;21.99;47.13;93893.44;5010126;28;20084;-65
2022/11/24 02:55:50;;;;;;;3.10;2.05;;;;;;;20.89;46.75;93724.41;4993397;28;20046;-65
2022/11/24 02:58:15;;;;;;;2.40;1.75;;;;;;;21.90;47.01;93873.41;5014906;28;20038;-63
2022/11/24 03:00:41;;;;;;;2.60;1.90;;;;;;;21.98;47.38;93891.97;5001341;28;20415;-65
2022/11/24 03:03:06;;;;;;;2.58;1.77;;;;;;;21.97;47.19;93895.97;5017213;28;20096;-64
2022/11/24 03:05:32;;;;;;;2.65;1.80;;;;;;;21.96;47.05;93899.94;5016802;28;20525;-63
2022/11/24 03:07:57;;;;;;;2.97;2.00;;;;;;;21.97;47.18;93895.97;5015813;28;20045;-63
2022/11/24 03:10:23;;;;;;;2.70;1.83;;;;;;;21.93;46.91;93897.56;4999203;28;20033;-64
2022/11/24 03:12:49;;;;;;;2.53;1.80;;;;;;;21.95;47.10;93903.91;4998708;28;20029;-64
2022/11/24 03:15:14;;;;;;;2.67;1.63;;;;;;;21.92;47.34;93893.38;4999898;28;20048;-64
2022/11/24 03:17:40;;;;;;;2.72;1.58;;;;;;;21.91;47.25;93891.88;5016563;28;20041;-64
2022/11/24 03:20:06;;;;;;;2.88;1.90;;;;;;;21.42;47.10;93819.56;5018196;28;20580;-64
2022/11/24 03:22:31;;;;;;;2.67;1.88;;;;;;;21.97;46.93;93900.66;5018067;28;20040;-65
2022/11/24 03:24:57;;;;;;;2.75;1.75;;;;;;;21.93;46.93;93906.44;4996590;28;20033;-63
2022/11/24 03:27:23;;;;;;;2.50;1.77;;;;;;;21.96;47.06;93910.81;4989416;28;20052;-65
2022/11/24 03:29:48;;;;;;;3.38;1.90;;;;;;;21.91;47.28;93907.47;5015489;28;20103;-64
2022/11/24 03:32:14;;;;;;;2.58;1.77;;;;;;;21.95;46.95;93920.22;5017506;28;20049;-67
2022/11/24 03:34:39;;;;;;;3.05;2.00;;;;;;;21.80;46.93;93907.72;4996765;28;20053;-63
2022/11/24 03:37:05;;;;;;;2.88;1.63;;;;;;;21.93;47.30;93939.03;4999052;28;20900;-66
2022/11/24 03:39:30;;;;;;;2.50;1.83;;;;;;;21.91;47.32;93935.38;4997178;28;20041;-63
2022/11/24 03:41:56;;;;;;;2.90;1.85;;;;;;;21.94;46.99;93948.66;5016171;28;20421;-63
2022/11/24 03:44:21;;;;;;;2.45;1.70;;;;;;;21.95;47.17;93957.53;5015296;28;20536;-62
2022/11/24 03:46:47;;;;;;;2.60;1.70;;;;;;;21.95;46.81;93946.66;4998908;28;20033;-63
2022/11/24 03:49:12;;;;;;;2.80;1.70;;;;;;;21.95;46.73;93952.09;5016830;28;20057;-62
2022/11/24 03:51:38;;;;;;;2.97;1.88;;;;;;;21.87;47.10;93939.66;5015368;28;20037;-64
2022/11/24 03:54:03;;;;;;;2.65;1.90;;;;;;;21.91;46.73;93945.53;5013304;28;20449;-63
2022/11/24 03:56:29;;;;;;;2.67;1.83;;;;;;;21.92;47.17;93938.84;5014818;28;20050;-64
2022/11/24 03:58:54;;;;;;;2.15;1.60;;;;;;;20.78;46.90;93785.03;5016464;28;20198;-63
2022/11/24 04:01:20;;;;;;;2.75;1.70;;;;;;;20.77;46.94;93782.84;5014260;28;20030;-66
2022/11/24 04:03:45;;;;;;;3.00;1.90;;;;;;;21.83;47.08;93947.44;5017061;28;20395;-63
2022/11/24 04:06:11;;;;;;;2.70;1.90;;;;;;;21.87;47.17;93955.97;4997592;28;20045;-64
2022/11/24 04:08:36;;;;;;;2.72;1.80;;;;;;;21.92;47.05;93981.06;5014205;28;20053;-62
2022/11/24 04:11:02;;;;;;;2.72;1.90;;;;;;;20.84;47.09;93809.38;5013944;28;20049;-65
2022/11/24 04:13:27;;;;;;;2.33;1.58;;;;;;;21.50;46.97;93907.31;4979203;28;20029;-62
2022/11/24 04:15:53;;;;;;;2.20;1.65;;;;;;;21.83;46.82;93971.88;5009467;28;20426;-63
2022/11/24 04:18:19;;;;;;;2.50;1.70;;;;;;;21.26;47.06;93880.34;4992028;28;20080;-62
2022/11/24 04:20:45;;;;;;;3.20;2.03;;;;;;;21.90;47.21;93987.53;5031154;28;20049;-64
2022/11/24 04:23:10;;;;;;;3.45;2.03;;;;;;;21.89;47.13;93996.97;5016441;28;20123;-64
2022/11/24 04:25:36;;;;;;;3.08;1.70;;;;;;;22.03;46.93;93989.00;5014739;28;20087;-64
2022/11/24 04:28:01;;;;;;;3.50;1.70;;;;;;;22.01;46.83;93977.91;5014853;28;20045;-64
2022/11/24 04:30:27;;;;;;;2.63;1.90;;;;;;;22.19;46.35;93977.06;4998704;28;20038;-66
2022/11/24 04:32:53;;;;;;;2.85;1.83;;;;;;;21.82;46.50;93921.50;5014986;28;20049;-62
2022/11/24 04:35:18;;;;;;;2.42;1.77;;;;;;;22.31;46.50;93989.19;5014677;28;20286;-63
2022/11/24 04:37:44;;;;;;;3.05;2.05;;;;;;;22.40;46.05;93991.47;5016185;28;20037;-63
2022/11/24 04:40:10;;;;;;;2.95;1.60;;;;;;;21.86;45.88;93906.34;4979779;28;20543;-62
2022/11/24 04:42:35;;;;;;;2.30;1.50;;;;;;;22.47;45.88;93985.38;5014002;28;20490;-63
2022/11/24 04:45:01;;;;;;;2.67;1.80;;;;;;;22.46;45.75;93984.63;4996618;28;20130;-65
2022/11/24 04:47:26;;;;;;;2.65;1.88;;;;;;;22.47;45.75;93986.13;5011563;28;20079;-63
2022/11/24 04:49:52;;;;;;;2.22;1.70;;;;;;;22.43;45.84;93974.09;5012419;28;20037;-65
2022/11/24 04:52:18;;;;;;;4.20;1.67;;;;;;;22.49;46.05;93988.31;5010480;28;20041;-63
2022/11/24 04:54:44;;;;;;;2.63;1.88;;;;;;;22.53;45.63;93991.44;5010172;28;20377;-63
2022/11/24 04:57:25;;;;;;;2.53;1.63;;;;;;;22.50;45.69;93995.22;5013454;28;20045;-64
2022/11/24 04:59:51;;;;;;;2.72;1.60;;;;;;;22.47;45.89;93986.13;5012883;28;20183;-63
2022/11/24 05:02:17;;;;;;;2.70;1.95;;;;;;;22.49;45.72;93989.03;5013177;28;20132;-66
2022/11/24 05:04:42;;;;;;;2.33;1.50;;;;;;;22.62;45.33;93996.44;5013208;28;20413;-66
2022/11/24 05:07:10;;;;;;;3.33;1.70;;;;;;;21.91;45.10;93902.75;4996749;28;20029;-63
2022/11/24 05:10:33;;;;;;;2.33;1.70;;;;;;;22.58;45.40;93996.03;5013210;28;20819;-64
2022/11/24 05:12:21;;;;;;;2.38;1.60;;;;;;;22.65;45.26;93995.38;5014330;28;20183;-63
2022/11/24 05:14:46;;;;;;;3.53;2.03;;;;;;;22.70;45.69;94002.69;4997198;28;20478;-63
2022/11/24 05:17:12;;;;;;;3.00;1.60;;;;;;;22.67;45.15;94009.91;5012941;28;20413;-64
2022/11/24 05:19:37;;;;;;;2.25;1.70;;;;;;;22.68;45.39;93999.78;4997088;28;20038;-63
2022/11/24 05:22:03;;;;;;;2.80;1.63;;;;;;;22.67;45.40;93981.97;5013033;28;20025;-64
2022/11/24 05:24:28;;;;;;;3.22;1.65;;;;;;;22.85;45.04;93986.50;5012297;28;20061;-64
2022/11/24 05:26:54;;;;;;;2.55;1.60;;;;;;;22.86;45.04;93999.59;4981203;28;20068;-63
2022/11/24 05:29:19;;;;;;;2.38;1.83;;;;;;;22.82;45.11;93998.44;4994451;28;20204;-64
2022/11/24 05:31:45;;;;;;;3.67;1.65;;;;;;;23.02;45.13;94034.63;5012617;28;20053;-64
2022/11/24 05:34:12;;;;;;;3.08;1.75;;;;;;;23.04;45.03;94015.75;5013013;28;20033;-66
2022/11/24 05:36:53;;;;;;;2.40;1.67;;;;;;;23.25;44.88;94019.22;5012163;28;20111;-63
2022/11/24 05:39:19;;;;;;;2.63;1.77;;;;;;;23.08;44.59;93988.94;5013894;28;20080;-63
2022/11/24 05:41:44;;;;;;;2.58;1.80;;;;;;;22.99;44.67;93970.34;4977561;28;20057;-64
2022/11/24 05:44:10;;;;;;;2.80;1.63;;;;;;;22.81;44.37;93939.81;5015198;28;20103;-62
2022/11/24 05:46:35;;;;;;;2.17;1.60;;;;;;;23.41;44.76;94031.72;4994058;28;20029;-65
2022/11/24 05:49:01;;;;;;;2.88;1.65;;;;;;;23.47;44.58;94029.59;5011881;28;20026;-64
2022/11/24 05:51:26;;;;;;;2.67;1.77;;;;;;;23.49;44.50;94024.31;5013557;28;20037;-62
2022/11/24 05:53:52;;;;;;;2.20;1.58;;;;;;;23.52;44.05;94020.53;5011747;28;20061;-63
2022/11/24 05:56:17;;;;;;;2.60;1.73;;;;;;;23.47;44.38;94013.97;4972773;28;20068;-64
2022/11/24 05:58:43;;;;;;;2.50;2.00;;;;;;;23.66;43.74;94038.28;4971897;28;20498;-66
2022/11/24 06:01:08;;;;;;;2.63;1.75;;;;;;;23.86;44.05;94032.09;4995652;28;20520;-62
2022/11/24 06:03:34;;;;;;;2.65;1.75;;;;;;;23.87;43.47;94035.00;4998387;28;20046;-62
2022/11/24 06:05:59;;;;;;;2.47;1.70;;;;;;;23.84;43.34;94023.69;4986091;28;20112;-63
2022/11/24 06:08:24;;;;;;;2.45;1.70;;;;;;;23.94;43.46;94045.19;4975312;28;20045;-63
2022/11/24 06:10:50;;;;;;;2.65;1.73;;;;;;;23.06;42.98;93909.78;4964793;28;20429;-64
2022/11/24 06:13:15;;;;;;;2.55;1.67;;;;;;;23.94;43.71;94039.03;4987276;28;20038;-63
2022/11/24 06:15:41;;;;;;;2.63;1.65;;;;;;;23.88;43.40;94025.56;4993461;28;20065;-66
2022/11/24 06:18:06;;;;;;;2.25;1.70;;;;;;;24.01;43.74;94041.81;4974624;28;20070;-62
2022/11/24 06:20:32;;;;;;;2.50;1.70;;;;;;;24.15;43.42;94048.59;4993262;28;20483;-64
2022/11/24 06:22:58;;;;;;;2.42;1.58;;;;;;;24.03;44.26;94041.97;4961810;28;21319;-62
2022/11/24 06:25:23;;;;;;;2.58;1.60;;;;;;;24.25;44.31;94035.94;4958986;28;20081;-63
2022/11/24 06:27:49;;;;;;;3.30;1.50;;;;;;;23.26;44.18;93895.38;4961845;28;20040;-64
2022/11/24 06:30:14;;;;;;;2.33;1.83;;;;;;;24.31;46.02;94077.44;4973744;28;20042;-64
2022/11/24 06:32:43;;;;;;;2.78;1.70;;;;;;;24.51;45.62;94054.81;4987327;28;20057;-62
2022/11/24 06:35:10;;;;;;;3.65;1.70;;;;;;;24.45;46.01;94092.47;4960948;28;20041;-63
2022/11/24 06:37:36;;;;;;;2.53;1.80;;;;;;;23.92;45.38;93993.22;4994994;28;20030;-65
2022/11/24 06:40:01;;;;;;;2.75;1.90;;;;;;;24.45;44.45;94076.09;4942281;28;20080;-62
2022/11/24 06:42:27;;;;;;;2.40;1.67;;;;;;;24.40;45.35;94079.69;4990620;28;20042;-65
2022/11/24 06:44:52;;;;;;;4.85;1.80;;;;;;;24.43;44.07;94089.53;4958513;28;20493;-63
2022/11/24 06:47:18;;;;;;;3.13;1.65;;;;;;;24.47;43.53;94089.94;4993184;28;20050;-65
2022/11/24 06:49:44;;;;;;;2.90;1.60;;;;;;;24.48;43.66;94105.03;4973142;28;20041;-66
2022/11/24 06:52:09;;;;;;;2.70;1.83;;;;;;;23.98;43.50;94028.50;4971560;28;20498;-63
2022/11/24 06:54:35;;;;;;;4.03;1.88;;;;;;;24.43;43.92;94141.41;4978314;28;20072;-64
2022/11/24 06:57:00;;;;;;;2.80;1.60;;;;;;;23.87;43.73;94029.53;5011954;28;20048;-63
2022/11/24 06:59:26;;;;;;;2.60;1.67;;;;;;;24.60;43.03;94130.75;4986578;28;20096;-62
2022/11/24 07:01:52;;;;;;;2.75;1.73;;;;;;;24.51;43.28;94112.13;5010914;28;20048;-62
2022/11/24 07:04:18;;;;;;;3.25;1.98;;;;;;;24.67;43.10;94130.06;5010119;28;20980;-62
2022/11/24 07:06:43;;;;;;;2.30;1.67;;;;;;;24.94;42.65;94130.00;5011294;28;20293;-66
2022/11/24 07:09:09;;;;;;;2.90;1.70;;;;;;;25.05;42.08;94137.91;4992563;28;20533;-66
2022/11/24 07:11:35;;;;;;;2.78;1.83;;;;;;;25.05;42.13;94146.13;5009820;28;20497;-65
2022/11/24 07:14:00;;;;;;;2.72;1.88;;;;;;;25.00;42.22;94141.53;5009328;28;20056;-64
2022/11/24 07:16:26;;;;;;;2.80;1.70;;;;;;;24.36;42.10;94062.94;4993794;28;20026;-63
2022/11/24 07:18:52;;;;;;;2.78;1.92;;;;;;;24.42;42.01;94077.16;5003906;28;20490;-62
2022/11/24 07:21:18;;;;;;;2.95;2.05;;;;;;;24.88;42.07;94156.03;5012746;28;20045;-62
2022/11/24 07:23:47;;;;;;;3.60;2.10;;;;;;;24.86;42.41;94151.09;5010531;28;20932;-64
2022/11/24 07:26:12;;;;;;;3.05;1.90;;;;;;;24.40;42.19;94074.25;5012293;28;20506;-63
2022/11/24 07:28:37;;;;;;;2.40;1.98;;;;;;;24.89;42.19;94163.66;5011653;28;20060;-61
2022/11/24 07:31:07;;;;;;;3.10;2.10;;;;;;;24.82;42.67;94153.44;4994827;28;20052;-65
2022/11/24 07:33:33;;;;;;;3.08;2.15;;;;;;;24.91;42.27;94166.59;4991717;28;20847;-62
2022/11/24 07:35:59;;;;;;;3.08;1.98;;;;;;;25.13;42.31;94166.00;4991099;28;20585;-59
2022/11/24 07:38:25;;;;;;;3.10;1.90;;;;;;;24.54;41.86;94078.31;4988463;28;20133;-62
2022/11/24 07:40:50;;;;;;;3.97;1.88;;;;;;;25.62;41.22;94171.94;5008840;28;20500;-63
2022/11/24 07:43:16;;;;;;;3.17;1.88;;;;;;;25.63;40.79;94179.63;4994689;28;20080;-64
2022/11/24 07:45:41;;;;;;;3.05;2.17;;;;;;;25.57;40.78;94170.84;4995157;28;20495;-61
2022/11/24 07:48:07;;;;;;;2.92;2.17;;;;;;;25.08;40.51;94071.28;5001878;28;20577;-65
2022/11/24 07:50:33;;;;;;;3.20;1.95;;;;;;;25.75;40.67;94182.78;5012007;28;20088;-62
2022/11/24 07:53:04;;;;;;;2.38;1.98;;;;;;;25.72;40.59;94192.06;5011728;28;20074;-63
2022/11/24 07:55:30;;;;;;;3.17;2.00;;;;;;;25.72;40.47;94203.00;5010656;28;20500;-62
2022/11/24 07:57:59;;;;;;;3.05;2.10;;;;;;;25.55;40.92;94202.75;5012874;28;20037;-61
2022/11/24 08:00:26;;;;;;;3.53;2.15;;;;;;;25.61;40.66;94208.78;5000557;28;20135;-62
2022/11/24 08:02:51;;;;;;;3.00;2.17;;;;;;;25.34;40.69;94196.69;4997310;28;20073;-61
2022/11/24 08:05:17;;;;;;;3.40;2.40;;;;;;;25.41;41.15;94206.88;5001683;28;20044;-63
2022/11/24 08:07:42;;;;;;;4.07;2.35;;;;;;;25.27;40.95;94202.84;5011471;28;20573;-60
2022/11/24 08:10:08;;;;;;;2.88;2.22;;;;;;;25.26;40.96;94212.31;4993229;28;20037;-61
2022/11/24 08:12:33;;;;;;;3.25;2.08;;;;;;;24.52;41.20;94146.38;5010600;28;21007;-61
2022/11/24 08:14:59;;;;;;;3.33;2.40;;;;;;;25.14;41.60;94222.13;5001424;28;20053;-64
2022/11/24 08:17:24;;;;;;;3.35;2.20;;;;;;;25.09;41.26;94225.00;5009364;28;20049;-62
2022/11/24 08:19:50;;;;;;;3.25;2.30;;;;;;;24.51;41.09;94139.44;5013583;28;20049;-63
2022/11/24 08:22:15;;;;;;;3.42;2.38;;;;;;;24.92;41.50;94236.34;5007672;28;20033;-62
2022/11/24 08:24:45;;;;;;;3.28;2.10;;;;;;;24.92;41.36;94227.44;5013068;28;20140;-62
2022/11/24 08:27:12;;;;;;;3.63;2.28;;;;;;;24.89;41.63;94223.75;5014332;28;20058;-62
2022/11/24 08:29:37;;;;;;;4.35;2.53;;;;;;;24.23;41.75;94163.97;5002187;28;20239;-61
2022/11/24 08:32:03;;;;;;;3.63;2.40;;;;;;;24.81;41.81;94238.63;4994343;28;20048;-63
2022/11/24 08:34:29;;;;;;;3.20;2.35;;;;;;;24.76;41.74;94236.06;5013485;28;20549;-62
2022/11/24 08:36:54;;;;;;;2.85;2.17;;;;;;;24.73;42.00;94258.97;4979169;28;20030;-62
2022/11/24 08:39:20;;;;;;;4.65;2.60;;;;;;;24.71;42.08;94250.56;5005905;28;20106;-59
2022/11/24 08:41:45;;;;;;;3.10;2.40;;;;;;;24.16;41.84;94186.47;5013540;28;20898;-61
2022/11/24 08:44:14;;;;;;;3.40;2.40;;;;;;;24.58;42.38;94253.41;4996032;28;20436;-62
2022/11/24 08:46:40;;;;;;;4.32;2.53;;;;;;;24.48;42.30;94250.44;5005661;28;20140;-64
2022/11/24 08:49:06;;;;;;;3.30;2.42;;;;;;;23.73;42.33;94154.84;4980583;28;20270;-60
2022/11/24 08:51:31;;;;;;;3.25;2.15;;;;;;;24.45;42.40;94267.88;5005032;28;20060;-63
2022/11/24 08:53:58;;;;;;;5.10;2.80;;;;;;;24.47;42.07;94275.53;5008189;28;20077;-62
2022/11/24 08:56:25;;;;;;;3.53;2.25;;;;;;;24.45;42.23;94278.06;4964273;28;20528;-66
2022/11/24 08:58:51;;;;;;;3.67;2.40;;;;;;;24.46;42.58;94274.06;4997470;28;20239;-60
2022/11/24 09:01:18;;;;;;;3.20;2.28;;;;;;;24.42;42.60;94279.13;4997352;28;20567;-61
2022/11/24 09:03:45;;;;;;;3.38;2.33;;;;;;;24.33;42.60;94304.16;4979164;28;20042;-61
2022/11/24 09:06:10;;;;;;;3.47;2.20;;;;;;;23.28;42.06;94127.13;4960190;28;20054;-62
2022/11/24 09:08:36;;;;;;;3.28;2.28;;;;;;;24.32;42.67;94308.13;5009272;28;20086;-62
2022/11/24 09:11:09;;;;;;;2.95;2.17;;;;;;;24.28;42.47;94296.81;4980860;28;20141;-60
2022/11/24 09:13:35;;;;;;;3.85;2.20;;;;;;;23.50;37.22;94287.41;5009358;28;20037;-62
2022/11/24 09:16:05;;;;;;;3.20;2.20;;;;;;;23.71;40.85;94299.13;4997523;28;20036;-61
2022/11/24 09:18:31;;;;;;;3.55;2.35;;;;;;;23.99;41.24;94295.25;4965076;28;20045;-63
2022/11/24 09:21:09;;;;;;;3.53;2.20;;;;;;;24.12;41.72;94295.19;4995459;28;20768;-62
2022/11/24 09:23:35;;;;;;;4.05;2.70;;;;;;;24.08;42.30;94292.06;5014834;28;20037;-61
2022/11/24 09:26:11;;;;;;;3.90;2.22;;;;;;;24.12;42.44;94292.47;4961767;28;20435;-64
2022/11/24 09:28:36;;;;;;;3.70;2.22;;;;;;;24.11;42.73;94282.06;5003456;28;20043;-61
2022/11/24 09:31:03;;;;;;;2.42;2.05;;;;;;;24.12;42.57;94295.19;4960979;28;20430;-65
2022/11/24 09:33:29;;;;;;;3.25;2.47;;;;;;;24.15;42.58;94299.56;4971892;28;20600;-68
2022/11/24 09:35:54;;;;;;;3.53;2.10;;;;;;;23.45;42.43;94198.31;5003375;28;20451;-64
2022/11/24 09:38:19;;;;;;;3.80;2.40;;;;;;;24.09;42.57;94301.69;4977390;28;20045;-65
2022/11/24 09:40:45;;;;;;;3.35;2.28;;;;;;;24.09;42.25;94298.97;4985824;28;20041;-62
2022/11/24 09:43:36;;;;;;;3.20;2.28;;;;;;;24.05;42.78;94306.78;4974039;28;20068;-63
2022/11/24 09:46:08;;;;;;;2.95;2.00;;;;;;;22.99;42.74;94139.16;4981136;28;20127;-63
2022/11/24 09:48:41;;;;;;;2.65;2.00;;;;;;;23.20;40.13;94202.59;5014626;28;20059;-65
2022/11/24 09:51:09;;;;;;;3.40;2.35;;;;;;;23.26;41.98;94227.72;4972713;28;20053;-63
2022/11/24 09:54:15;;;;;;;3.05;2.03;;;;;;;23.91;42.68;94302.59;4970572;28;20049;-63
2022/11/24 09:56:41;;;;;;;2.65;1.98;;;;;;;24.06;42.79;94313.66;4975338;28;20050;-65
2022/11/24 09:59:13;;;;;;;3.85;1.98;;;;;;;24.09;42.74;94312.63;4996439;28;20854;-63
2022/11/24 10:01:43;;;;;;;2.88;2.13;;;;;;;24.17;42.46;94312.69;4977455;28;20049;-66
2022/11/24 10:04:32;;;;;;;3.90;2.00;;;;;;;23.79;41.08;94305.38;4993890;28;20128;-62
2022/11/24 10:07:10;;;;;;;4.88;2.20;;;;;;;24.14;42.17;94314.50;4989013;28;20038;-62
2022/11/24 10:09:59;;;;;;;2.95;1.90;;;;;;;23.72;42.59;94246.81;5010033;28;20069;-68
2022/11/24 10:12:55;;;;;;;4.90;2.00;;;;;;;24.20;42.77;94326.03;4985533;28;20140;-64
2022/11/24 10:15:36;;;;;;;2.65;1.90;;;;;;;24.28;42.57;94329.53;4981475;28;20060;-66
2022/11/24 10:18:17;;;;;;;2.92;2.13;;;;;;;24.52;42.31;94323.78;4976931;28;20121;-70
2022/11/24 10:21:01;;;;;;;4.72;2.42;;;;;;;24.52;41.98;94331.97;5011454;28;20060;-64
2022/11/24 10:23:51;;;;;;;3.40;2.03;;;;;;;24.16;41.40;94324.88;4983194;28;20053;-64
2022/11/24 10:26:28;;;;;;;11.30;1.85;;;;;;;24.63;41.34;94337.16;4989969;28;20042;-63
2022/11/24 10:28:54;;;;;;;3.28;2.00;;;;;;;24.74;41.70;94321.25;5014458;28;20061;-63
2022/11/24 10:31:43;;;;;;;3.92;2.10;;;;;;;24.70;41.85;94320.84;4984856;28;20571;-65
2022/11/24 10:34:16;;;;;;;2.53;1.80;;;;;;;23.74;38.97;94322.59;4999439;28;20033;-65
2022/11/24 10:36:55;;;;;;;3.42;1.83;;;;;;;24.03;41.26;94328.38;4995538;28;20069;-66
2022/11/24 10:39:27;;;;;;;3.40;1.97;;;;;;;24.53;40.75;94306.88;4997799;28;20093;-63
2022/11/24 10:41:57;;;;;;;3.97;2.13;;;;;;;24.73;40.93;94330.69;4986685;28;20510;-62
2022/11/24 10:44:24;;;;;;;2.83;1.63;;;;;;;24.23;40.70;94224.00;4995986;28;20053;-66
2022/11/24 10:46:50;;;;;;;2.75;1.95;;;;;;;24.89;41.06;94315.91;4959205;28;20381;-63
2022/11/24 10:49:18;;;;;;;3.15;1.83;;;;;;;24.93;41.32;94338.88;4993765;28;20055;-62
2022/11/24 10:51:53;;;;;;;4.07;2.00;;;;;;;25.17;41.39;94313.94;4991977;28;20701;-62
2022/11/24 10:54:20;;;;;;;4.50;2.00;;;;;;;25.23;41.28;94330.91;4975695;28;20065;-66
2022/11/24 10:56:46;;;;;;;3.67;2.20;;;;;;;25.01;40.78;94251.53;4987297;28;20053;-66
2022/11/24 10:59:39;;;;;;;2.95;1.90;;;;;;;25.45;40.72;94316.63;4977923;28;20049;-63
2022/11/24 11:02:32;;;;;;;3.80;2.05;;;;;;;25.57;40.66;94334.19;5008950;28;20049;-63
2022/11/24 11:04:58;;;;;;;3.10;2.05;;;;;;;25.63;40.29;94315.63;4981171;28;20030;-63
2022/11/24 11:07:25;;;;;;;2.90;2.00;;;;;;;25.45;40.66;94322.09;4995612;28;20034;-64
2022/11/24 11:09:50;;;;;;;4.07;2.03;;;;;;;25.01;41.03;94282.31;5010572;28;20033;-63
2022/11/24 11:12:20;;;;;;;3.15;2.00;;;;;;;25.56;40.84;94333.47;4969978;28;20136;-63
2022/11/24 11:14:47;;;;;;;;;;;;;;;25.40;41.21;94326.44;4985007;28;20103;-63
2022/11/24 11:17:32;;;;;;;3.35;1.98;;;;;;;25.14;41.43;94331.41;4988035;28;19921;-64
2022/11/24 11:20:43;;;;;;;2.65;2.00;;;;;;;25.03;41.95;94320.75;4994591;28;20255;-65
2022/11/24 11:23:20;;;;;;;3.38;1.63;;;;;;;24.79;41.34;94262.31;4926652;28;20066;-64
2022/11/24 11:25:47;;;;;;;2.90;1.90;;;;;;;25.08;41.60;94314.44;4926296;28;20043;-62
2022/11/24 11:28:24;;;;;;;3.80;2.20;;;;;;;24.58;41.74;94245.22;4947065;28;20091;-67
2022/11/24 11:31:01;;;;;;;2.83;1.75;;;;;;;24.57;41.44;94246.47;5003184;28;20397;-64
2022/11/24 11:33:28;;;;;;;2.90;2.30;;;;;;;25.33;41.31;94331.88;4976488;28;20043;-65
2022/11/24 11:35:55;;;;;;;3.42;2.00;;;;;;;25.72;40.67;94335.00;4987731;28;20095;-65
2022/11/24 11:38:20;;;;;;;2.95;1.90;;;;;;;25.82;40.79;94336.69;5011271;28;20041;-62